Wakefield, Nebraska
Current Conditions -  °F | °C
As of 4:35 AM on Thursday 18 Dec 2014 (Local Time) from KLCG Reporting Station
Overcast Overcast  
Wind Chill: 18°   Ceiling: 6000
Heat Index: 25°   Visibility: 10mi
Dew Point: 21°   Wind: 6mph
Humidity: 85%   Direction: 140°SE
Pressure: 30.21"   Gusts: NA
Location:  42.27°N, 96.87°W
Report Text: KLCG 181035Z AUTO 14005KT 10SM OVC060 M04/M06 A3021 RMK AO2 T10401062
Loading
Personal Weather Stations






























Interactive Weather Map New forecast layout! Learn more

10-Day Weather Forecast

Advertisements
Track Severe Weather on mobile